createdAt,value
2017-10-21T00:00:53.446Z,0
2017-10-21T00:01:54.873Z,0
2017-10-21T00:02:56.283Z,0
2017-10-21T00:03:57.707Z,0
2017-10-21T00:04:59.128Z,0
2017-10-21T00:06:00.550Z,0
2017-10-21T00:07:01.979Z,0
2017-10-21T00:08:03.391Z,0
2017-10-21T00:09:04.807Z,0
2017-10-21T00:10:06.219Z,0
2017-10-21T00:11:07.632Z,0
2017-10-21T00:12:09.057Z,0
2017-10-21T00:13:10.475Z,0
2017-10-21T00:14:11.891Z,0
2017-10-21T00:15:13.306Z,0
2017-10-21T00:16:14.737Z,0
2017-10-21T00:17:16.156Z,0
2017-10-21T00:18:17.582Z,0
2017-10-21T00:19:19.003Z,0
2017-10-21T00:20:20.422Z,0
2017-10-21T00:21:21.924Z,0
2017-10-21T00:22:23.357Z,0
2017-10-21T00:23:24.767Z,0
2017-10-21T00:24:26.184Z,0
2017-10-21T00:25:27.595Z,0
2017-10-21T00:26:29.105Z,0
2017-10-21T00:27:30.529Z,0
2017-10-21T00:28:32.054Z,0
2017-10-21T00:29:33.469Z,0
2017-10-21T00:30:34.950Z,0
2017-10-21T00:31:36.368Z,0
2017-10-21T00:32:37.791Z,0
2017-10-21T00:33:39.242Z,0
2017-10-21T00:34:40.661Z,0
2017-10-21T00:35:42.085Z,0
2017-10-21T00:36:43.496Z,0
2017-10-21T00:37:44.931Z,0
2017-10-21T00:38:46.379Z,0
2017-10-21T00:39:47.778Z,0
2017-10-21T00:40:49.192Z,0
2017-10-21T00:41:50.607Z,0
2017-10-21T00:42:52.019Z,0
2017-10-21T00:43:53.442Z,0
2017-10-21T00:44:54.863Z,0
2017-10-21T00:45:56.281Z,0
2017-10-21T00:46:57.692Z,0
2017-10-21T00:47:59.114Z,0
2017-10-21T00:49:00.530Z,0
2017-10-21T00:50:01.954Z,0
2017-10-21T00:51:03.371Z,0
2017-10-21T00:52:04.755Z,0
2017-10-21T00:53:06.170Z,0
2017-10-21T00:54:07.597Z,0
2017-10-21T00:55:09.011Z,0
2017-10-21T00:56:10.442Z,0
2017-10-21T00:57:11.858Z,0
2017-10-21T00:58:13.277Z,0
2017-10-21T00:59:14.707Z,0
2017-10-21T01:00:16.082Z,0
2017-10-21T01:01:17.496Z,0
2017-10-21T01:02:18.919Z,0
2017-10-21T01:03:20.340Z,0
2017-10-21T01:04:21.757Z,0
2017-10-21T01:05:23.176Z,0
2017-10-21T01:06:24.596Z,0
2017-10-21T01:07:26.017Z,0
2017-10-21T01:08:27.439Z,0
2017-10-21T01:09:28.855Z,0
2017-10-21T01:10:30.276Z,0
2017-10-21T01:11:31.693Z,0
2017-10-21T01:12:33.116Z,0
2017-10-21T01:13:34.532Z,0
2017-10-21T01:14:35.953Z,0
2017-10-21T01:15:37.374Z,0
2017-10-21T01:16:38.798Z,0
2017-10-21T01:17:40.215Z,0
2017-10-21T01:18:41.634Z,0
2017-10-21T01:19:43.054Z,0
2017-10-21T01:20:44.471Z,0
2017-10-21T01:21:45.893Z,0
2017-10-21T01:22:47.316Z,0
2017-10-21T01:23:48.738Z,0
2017-10-21T01:24:50.153Z,0
2017-10-21T01:25:51.578Z,0
2017-10-21T01:26:52.996Z,0
2017-10-21T01:27:54.412Z,0
2017-10-21T01:28:55.837Z,0
2017-10-21T01:29:57.252Z,0
2017-10-21T01:30:58.673Z,0
2017-10-21T01:32:00.095Z,0
2017-10-21T01:33:01.513Z,0
2017-10-21T01:34:02.936Z,0
2017-10-21T01:35:04.357Z,0
2017-10-21T01:36:05.780Z,0
2017-10-21T01:37:07.202Z,0
2017-10-21T01:38:08.619Z,0
2017-10-21T01:39:10.046Z,0
2017-10-21T01:40:11.461Z,0
2017-10-21T01:41:12.882Z,0
2017-10-21T01:42:14.303Z,0
2017-10-21T01:43:15.720Z,0
2017-10-21T01:44:17.137Z,0
2017-10-21T01:45:18.561Z,0
2017-10-21T01:46:19.985Z,0
2017-10-21T01:47:21.401Z,0
2017-10-21T01:48:22.827Z,0
2017-10-21T01:49:24.270Z,0
2017-10-21T01:50:25.663Z,0
2017-10-21T01:51:27.080Z,0
2017-10-21T01:52:28.506Z,0
2017-10-21T01:53:29.926Z,0
2017-10-21T01:54:31.344Z,0
2017-10-21T01:55:32.768Z,0
2017-10-21T01:56:34.189Z,0
2017-10-21T01:57:35.604Z,0
2017-10-21T01:58:37.027Z,0
2017-10-21T01:59:38.448Z,0
2017-10-21T02:00:39.862Z,0
2017-10-21T02:01:41.291Z,0
2017-10-21T02:02:42.706Z,0
2017-10-21T02:03:44.132Z,0
2017-10-21T02:04:45.571Z,0
2017-10-21T02:05:46.999Z,0
2017-10-21T02:06:48.418Z,0
2017-10-21T02:07:49.846Z,0
2017-10-21T02:08:51.269Z,0
2017-10-21T02:09:52.689Z,0
2017-10-21T02:10:54.116Z,0
2017-10-21T02:11:55.536Z,0
2017-10-21T02:12:56.971Z,0
2017-10-21T02:13:59.285Z,0
2017-10-21T02:15:00.713Z,0
2017-10-21T02:16:02.132Z,0
2017-10-21T02:17:03.551Z,0
2017-10-21T02:18:05.015Z,0
2017-10-21T02:19:06.445Z,0
2017-10-21T02:20:07.849Z,0
2017-10-21T02:21:09.264Z,0
2017-10-21T02:22:10.678Z,0
2017-10-21T02:23:12.100Z,0
2017-10-21T02:24:13.519Z,0
2017-10-21T02:25:14.939Z,0
2017-10-21T02:26:16.356Z,0
2017-10-21T02:27:17.786Z,0
2017-10-21T02:28:19.203Z,0
2017-10-21T02:29:20.622Z,0
2017-10-21T02:30:22.036Z,0
2017-10-21T02:31:23.453Z,0
2017-10-21T02:32:24.880Z,0
2017-10-21T02:33:26.299Z,0
2017-10-21T02:34:27.723Z,0
2017-10-21T02:35:29.142Z,0
2017-10-21T02:36:30.566Z,0
2017-10-21T02:37:31.979Z,0
2017-10-21T02:38:33.414Z,0
2017-10-21T02:39:34.835Z,0
2017-10-21T02:40:36.253Z,0
2017-10-21T02:41:37.674Z,0
2017-10-21T02:42:39.097Z,0
2017-10-21T02:43:40.515Z,0
2017-10-21T02:44:41.938Z,0
2017-10-21T02:45:43.349Z,0
2017-10-21T02:46:44.766Z,0
2017-10-21T02:47:46.188Z,0
2017-10-21T02:48:47.604Z,0
2017-10-21T02:49:49.026Z,0
2017-10-21T02:50:50.467Z,0
2017-10-21T02:51:51.901Z,0
2017-10-21T02:52:53.305Z,0
2017-10-21T02:53:54.726Z,0
2017-10-21T02:54:56.160Z,0
2017-10-21T02:55:57.683Z,0
2017-10-21T02:56:59.102Z,0
2017-10-21T02:58:00.575Z,0
2017-10-21T02:59:02.002Z,0
2017-10-21T03:00:03.414Z,4
2017-10-21T03:01:04.905Z,4
2017-10-21T03:02:06.327Z,4
2017-10-21T03:03:07.750Z,4
2017-10-21T03:04:09.180Z,4
2017-10-21T03:05:10.611Z,4
2017-10-21T03:06:12.020Z,4
2017-10-21T03:07:13.435Z,4
2017-10-21T03:08:14.851Z,4
2017-10-21T03:09:16.268Z,4
2017-10-21T03:10:17.680Z,4
2017-10-21T03:11:19.095Z,4
2017-10-21T03:12:20.512Z,4
2017-10-21T03:13:21.931Z,4
2017-10-21T03:14:23.356Z,4
2017-10-21T03:15:24.774Z,4
2017-10-21T03:16:26.196Z,4
2017-10-21T03:17:27.605Z,4
2017-10-21T03:18:29.030Z,4
2017-10-21T03:19:30.444Z,4
2017-10-21T03:20:31.865Z,4
2017-10-21T03:21:33.286Z,4
2017-10-21T03:22:34.707Z,4
2017-10-21T03:23:36.124Z,4
2017-10-21T03:24:37.547Z,4
2017-10-21T03:25:38.964Z,4
2017-10-21T03:26:40.375Z,4
2017-10-21T03:27:41.799Z,4
2017-10-21T03:28:43.233Z,4
2017-10-21T03:29:44.646Z,4
2017-10-21T03:30:46.054Z,4
2017-10-21T03:31:47.470Z,4
2017-10-21T03:32:48.884Z,4
2017-10-21T03:33:50.306Z,4
2017-10-21T03:34:51.718Z,4
2017-10-21T03:35:53.133Z,4
2017-10-21T03:36:54.549Z,4
2017-10-21T03:37:56.002Z,4
2017-10-21T03:38:57.381Z,4
2017-10-21T03:39:58.802Z,4
2017-10-21T03:41:00.226Z,4
2017-10-21T03:42:01.644Z,4
2017-10-21T03:43:03.063Z,4
2017-10-21T03:44:05.099Z,4
2017-10-21T03:45:06.525Z,4
2017-10-21T03:46:07.956Z,4
2017-10-21T03:47:09.377Z,4
2017-10-21T03:48:10.791Z,4
2017-10-21T03:49:12.216Z,4
2017-10-21T03:50:13.630Z,4
2017-10-21T03:51:15.914Z,4
2017-10-21T03:52:17.363Z,4
2017-10-21T03:53:18.781Z,4
2017-10-21T03:54:20.211Z,4
2017-10-21T03:55:21.635Z,4
2017-10-21T03:56:23.062Z,4
2017-10-21T03:57:24.484Z,4
2017-10-21T03:58:25.868Z,4
2017-10-21T03:59:27.293Z,0
2017-10-21T04:00:28.716Z,0
2017-10-21T04:01:30.146Z,0
2017-10-21T04:02:31.566Z,0
2017-10-21T04:03:33.600Z,0
2017-10-21T04:04:35.018Z,0
2017-10-21T04:05:36.435Z,0
2017-10-21T04:06:37.857Z,0
2017-10-21T04:07:39.278Z,0
2017-10-21T04:08:40.709Z,0
2017-10-21T04:09:42.121Z,0
2017-10-21T04:10:43.547Z,0
2017-10-21T04:11:44.967Z,0
2017-10-21T04:12:46.384Z,0
2017-10-21T04:13:47.806Z,0
2017-10-21T04:14:49.217Z,0
2017-10-21T04:15:50.638Z,0
2017-10-21T04:16:52.062Z,0
2017-10-21T04:17:53.479Z,0
2017-10-21T04:18:54.958Z,0
2017-10-21T04:19:56.373Z,0
2017-10-21T04:20:57.916Z,0
2017-10-21T04:21:59.334Z,0
2017-10-21T04:23:00.757Z,0
2017-10-21T04:24:02.262Z,0
2017-10-21T04:25:03.676Z,0
2017-10-21T04:26:05.146Z,0
2017-10-21T04:27:06.564Z,0
2017-10-21T04:28:08.059Z,0
2017-10-21T04:29:09.477Z,0
2017-10-21T04:30:10.897Z,0
2017-10-21T04:31:12.320Z,0
2017-10-21T04:32:13.737Z,0
2017-10-21T04:33:15.227Z,0
2017-10-21T04:34:16.653Z,0
2017-10-21T04:35:18.072Z,0
2017-10-21T04:36:19.504Z,0
2017-10-21T04:37:20.960Z,0
2017-10-21T04:38:22.361Z,0
2017-10-21T04:39:23.789Z,0
2017-10-21T04:40:25.204Z,0
2017-10-21T04:41:26.622Z,0
2017-10-21T04:42:28.036Z,0
2017-10-21T04:43:29.450Z,0
2017-10-21T04:44:30.870Z,0
2017-10-21T04:45:32.285Z,0
2017-10-21T04:46:33.705Z,0
2017-10-21T04:47:35.122Z,0
2017-10-21T04:48:36.537Z,0
2017-10-21T04:49:37.958Z,0
2017-10-21T04:50:39.375Z,0
2017-10-21T04:51:40.795Z,0
2017-10-21T04:52:42.208Z,0
2017-10-21T04:53:43.628Z,0
2017-10-21T04:54:45.044Z,0
2017-10-21T04:55:46.467Z,0
2017-10-21T04:56:47.891Z,0
2017-10-21T04:57:49.318Z,0
2017-10-21T04:58:50.738Z,0
2017-10-21T04:59:52.157Z,0
2017-10-21T05:00:53.578Z,0
2017-10-21T05:01:54.998Z,0
2017-10-21T05:02:56.412Z,0
2017-10-21T05:03:57.826Z,0
2017-10-21T05:04:59.245Z,0
2017-10-21T05:06:00.667Z,0
2017-10-21T05:07:02.083Z,0
2017-10-21T05:08:03.499Z,0
2017-10-21T05:09:04.921Z,0
2017-10-21T05:10:06.338Z,0
2017-10-21T05:11:07.752Z,0
2017-10-21T05:12:09.166Z,0
2017-10-21T05:13:10.577Z,0
2017-10-21T05:14:12.010Z,0
2017-10-21T05:15:13.437Z,0
2017-10-21T05:16:14.855Z,0
2017-10-21T05:17:16.277Z,0
2017-10-21T05:18:17.697Z,0
2017-10-21T05:19:19.121Z,0
2017-10-21T05:20:20.538Z,0
2017-10-21T05:21:21.960Z,0
2017-10-21T05:22:23.379Z,0
2017-10-21T05:23:24.810Z,0
2017-10-21T05:24:26.237Z,0
2017-10-21T05:25:27.652Z,0
2017-10-21T05:26:29.064Z,0
2017-10-21T05:27:30.484Z,0
2017-10-21T05:28:31.896Z,0
2017-10-21T05:29:33.319Z,0
2017-10-21T05:30:34.754Z,0
2017-10-21T05:31:36.149Z,0
2017-10-21T05:32:37.561Z,0
2017-10-21T05:33:38.978Z,0
2017-10-21T05:34:40.395Z,0
2017-10-21T05:35:41.815Z,0
2017-10-21T05:36:43.230Z,0
2017-10-21T05:37:44.645Z,0
2017-10-21T05:38:46.055Z,0
2017-10-21T05:39:47.479Z,0
2017-10-21T05:40:48.895Z,0
2017-10-21T05:41:50.318Z,4
2017-10-21T05:42:51.739Z,0
2017-10-21T05:43:53.167Z,4
2017-10-21T05:44:54.589Z,4
2017-10-21T05:45:56.012Z,4
2017-10-21T05:46:57.432Z,4
2017-10-21T05:47:58.847Z,4
2017-10-21T05:49:00.273Z,8
2017-10-21T05:50:01.682Z,8
2017-10-21T05:51:03.099Z,8
2017-10-21T05:52:04.522Z,12
2017-10-21T05:53:05.938Z,12
2017-10-21T05:54:07.356Z,12
2017-10-21T05:55:08.769Z,16
2017-10-21T05:56:10.188Z,16
2017-10-21T05:57:11.616Z,20
2017-10-21T05:58:13.034Z,24
2017-10-21T05:59:14.455Z,24
2017-10-21T06:00:15.877Z,28
2017-10-21T06:01:17.296Z,28
2017-10-21T06:02:18.716Z,32
2017-10-21T06:03:20.149Z,40
2017-10-21T06:04:21.650Z,40
2017-10-21T06:05:23.083Z,48
2017-10-21T06:06:24.503Z,48
2017-10-21T06:07:25.934Z,56
2017-10-21T06:08:27.357Z,60
2017-10-21T06:09:28.773Z,64
2017-10-21T06:10:30.186Z,68
2017-10-21T06:11:31.602Z,76
2017-10-21T06:12:33.036Z,80
2017-10-21T06:13:34.455Z,84
2017-10-21T06:14:35.869Z,92
2017-10-21T06:15:37.287Z,100
2017-10-21T06:16:38.706Z,104
2017-10-21T06:17:40.122Z,112
2017-10-21T06:18:41.538Z,116
2017-10-21T06:19:42.993Z,124
2017-10-21T06:20:44.415Z,132
2017-10-21T06:21:45.840Z,140
2017-10-21T06:22:47.255Z,148
2017-10-21T06:23:48.760Z,148
2017-10-21T06:24:50.180Z,152
2017-10-21T06:25:51.598Z,156
2017-10-21T06:26:53.020Z,160
2017-10-21T06:27:54.454Z,168
2017-10-21T06:28:55.876Z,180
2017-10-21T06:29:57.297Z,184
2017-10-21T06:30:58.712Z,188
2017-10-21T06:32:00.135Z,192
2017-10-21T06:33:01.555Z,196
2017-10-21T06:34:02.980Z,204
2017-10-21T06:35:04.424Z,208
2017-10-21T06:36:05.852Z,216
2017-10-21T06:37:07.267Z,220
2017-10-21T06:38:08.696Z,224
2017-10-21T06:39:10.116Z,224
2017-10-21T06:40:11.541Z,252
2017-10-21T06:41:13.024Z,272
2017-10-21T06:42:14.441Z,256
2017-10-21T06:43:15.864Z,252
2017-10-21T06:44:17.284Z,264
2017-10-21T06:45:18.714Z,268
2017-10-21T06:46:20.130Z,264
2017-10-21T06:47:21.559Z,272
2017-10-21T06:48:22.980Z,288
2017-10-21T06:49:24.397Z,288
2017-10-21T06:50:25.818Z,288
2017-10-21T06:51:27.235Z,280
2017-10-21T06:52:28.658Z,284
2017-10-21T06:53:30.073Z,300
2017-10-21T06:54:31.497Z,292
2017-10-21T06:55:32.929Z,312
2017-10-21T06:56:34.359Z,320
2017-10-21T06:57:35.784Z,336
2017-10-21T06:58:37.201Z,368
2017-10-21T06:59:38.635Z,328
2017-10-21T07:00:40.055Z,280
2017-10-21T07:01:41.482Z,244
2017-10-21T07:02:42.914Z,220
2017-10-21T07:03:44.339Z,200
2017-10-21T07:04:45.777Z,204
2017-10-21T07:05:47.189Z,196
2017-10-21T07:06:48.652Z,196
2017-10-21T07:07:50.074Z,200
2017-10-21T07:08:51.500Z,208
2017-10-21T07:09:52.939Z,232
2017-10-21T07:10:54.369Z,236
2017-10-21T07:11:55.795Z,236
2017-10-21T07:12:57.228Z,268
2017-10-21T07:13:58.664Z,296
2017-10-21T07:15:00.078Z,312
2017-10-21T07:16:01.500Z,324
2017-10-21T07:17:02.928Z,344
2017-10-21T07:18:04.347Z,360
2017-10-21T07:19:05.771Z,332
2017-10-21T07:20:07.191Z,348
2017-10-21T07:21:08.608Z,360
2017-10-21T07:22:10.040Z,384
2017-10-21T07:23:11.462Z,392
2017-10-21T07:24:12.887Z,416
2017-10-21T07:25:14.309Z,348
2017-10-21T07:26:15.730Z,456
2017-10-21T07:27:17.147Z,424
2017-10-21T07:28:18.568Z,424
2017-10-21T07:29:19.994Z,432
2017-10-21T07:30:21.411Z,444
2017-10-21T07:31:22.835Z,420
2017-10-21T07:32:24.256Z,484
2017-10-21T07:33:25.678Z,476
2017-10-21T07:34:27.131Z,428
2017-10-21T07:35:28.530Z,384
2017-10-21T07:36:29.965Z,396
2017-10-21T07:37:31.384Z,476
2017-10-21T07:38:32.811Z,564
2017-10-21T07:39:34.231Z,516
2017-10-21T07:40:35.657Z,480
2017-10-21T07:41:37.072Z,520
2017-10-21T07:42:38.502Z,556
2017-10-21T07:43:39.926Z,596
2017-10-21T07:44:41.356Z,544
2017-10-21T07:45:42.776Z,404
2017-10-21T07:46:44.199Z,356
2017-10-21T07:47:45.629Z,324
2017-10-21T07:48:47.048Z,320
2017-10-21T07:49:48.472Z,372
2017-10-21T07:50:49.885Z,472
2017-10-21T07:51:51.313Z,560
2017-10-21T07:52:52.741Z,652
2017-10-21T07:53:54.194Z,716
2017-10-21T07:54:55.656Z,716
2017-10-21T07:55:57.076Z,848
2017-10-21T07:56:58.500Z,936
2017-10-21T07:57:59.927Z,860
2017-10-21T07:59:01.353Z,760
2017-10-21T08:00:02.786Z,660
2017-10-21T08:01:04.208Z,624
2017-10-21T08:02:05.615Z,660
2017-10-21T08:03:07.032Z,688
2017-10-21T08:04:08.464Z,660
2017-10-21T08:05:09.888Z,596
2017-10-21T08:06:11.318Z,612
2017-10-21T08:07:12.739Z,292
2017-10-21T08:08:14.182Z,520
2017-10-21T08:09:15.611Z,484
2017-10-21T08:10:17.023Z,304
2017-10-21T08:11:18.450Z,320
2017-10-21T08:12:19.873Z,260
2017-10-21T08:13:21.298Z,332
2017-10-21T08:14:22.726Z,472
2017-10-21T08:15:24.150Z,636
2017-10-21T08:16:25.570Z,744
2017-10-21T08:17:26.993Z,796
2017-10-21T08:18:28.412Z,796
2017-10-21T08:19:29.835Z,736
2017-10-21T08:20:31.269Z,684
2017-10-21T08:21:32.692Z,624
2017-10-21T08:22:34.121Z,564
2017-10-21T08:23:35.545Z,508
2017-10-21T08:24:36.970Z,416
2017-10-21T08:25:38.403Z,376
2017-10-21T08:26:39.831Z,364
2017-10-21T08:27:41.261Z,376
2017-10-21T08:28:42.681Z,404
2017-10-21T08:29:44.106Z,420
2017-10-21T08:30:45.537Z,444
2017-10-21T08:31:46.984Z,436
2017-10-21T08:32:48.412Z,448
2017-10-21T08:33:49.828Z,416
2017-10-21T08:34:51.283Z,408
2017-10-21T08:35:52.701Z,392
2017-10-21T08:36:54.157Z,468
2017-10-21T08:37:55.587Z,520
2017-10-21T08:38:57.023Z,568
2017-10-21T08:39:58.460Z,584
2017-10-21T08:40:59.885Z,576
2017-10-21T08:42:01.307Z,592
2017-10-21T08:43:02.739Z,692
2017-10-21T08:44:04.164Z,784
2017-10-21T08:45:05.601Z,808
2017-10-21T08:46:07.028Z,856
2017-10-21T08:47:08.451Z,888
2017-10-21T08:48:09.871Z,828
2017-10-21T08:49:11.294Z,736
2017-10-21T08:50:12.717Z,616
2017-10-21T08:51:14.140Z,564
2017-10-21T08:52:15.567Z,536
2017-10-21T08:53:16.994Z,480
2017-10-21T08:54:18.420Z,460
2017-10-21T08:55:19.844Z,460
2017-10-21T08:56:21.271Z,560
2017-10-21T08:57:22.686Z,616
2017-10-21T08:58:24.116Z,624
2017-10-21T08:59:25.540Z,620
2017-10-21T09:00:26.956Z,608
2017-10-21T09:01:28.390Z,564
2017-10-21T09:02:29.809Z,536
2017-10-21T09:03:31.238Z,504
2017-10-21T09:04:32.657Z,464
2017-10-21T09:05:34.082Z,508
2017-10-21T09:06:35.516Z,536
2017-10-21T09:07:36.940Z,612
2017-10-21T09:08:38.361Z,724
2017-10-21T09:09:39.790Z,784
2017-10-21T09:10:41.210Z,792
2017-10-21T09:11:42.637Z,704
2017-10-21T09:12:44.069Z,668
2017-10-21T09:13:45.488Z,612
2017-10-21T09:14:46.918Z,552
2017-10-21T09:15:48.347Z,488
2017-10-21T09:16:49.766Z,480
2017-10-21T09:17:51.186Z,524
2017-10-21T09:18:52.609Z,564
2017-10-21T09:19:54.076Z,652
2017-10-21T09:20:55.491Z,640
2017-10-21T09:21:56.931Z,580
2017-10-21T09:22:58.357Z,660
2017-10-21T09:23:59.780Z,832
2017-10-21T09:25:01.221Z,996
2017-10-21T09:26:02.656Z,1044
2017-10-21T09:27:04.080Z,948
2017-10-21T09:28:05.629Z,932
2017-10-21T09:29:07.066Z,884
2017-10-21T09:30:08.496Z,820
2017-10-21T09:31:09.927Z,868
2017-10-21T09:32:11.356Z,928
2017-10-21T09:33:12.779Z,996
2017-10-21T09:34:14.200Z,1076
2017-10-21T09:35:15.637Z,1024
2017-10-21T09:36:17.123Z,996
2017-10-21T09:37:18.576Z,936
2017-10-21T09:38:20.016Z,852
2017-10-21T09:39:21.454Z,820
2017-10-21T09:40:22.873Z,796
2017-10-21T09:41:24.370Z,840
2017-10-21T09:42:25.812Z,940
2017-10-21T09:43:27.235Z,944
2017-10-21T09:44:28.682Z,1088
2017-10-21T09:45:30.099Z,1104
2017-10-21T09:46:31.529Z,1228
2017-10-21T09:47:32.948Z,1468
2017-10-21T09:48:34.367Z,1488
2017-10-21T09:49:35.791Z,1372
2017-10-21T09:50:37.221Z,1220
2017-10-21T09:51:38.649Z,1080
2017-10-21T09:52:40.077Z,972
2017-10-21T09:53:41.498Z,928
2017-10-21T09:54:42.929Z,1016
2017-10-21T09:55:44.379Z,1020
2017-10-21T09:56:45.775Z,1108
2017-10-21T09:57:47.204Z,1324
2017-10-21T09:58:48.628Z,1200
2017-10-21T09:59:50.061Z,996
2017-10-21T10:00:51.486Z,864
2017-10-21T10:01:52.906Z,868
2017-10-21T10:02:54.332Z,940
2017-10-21T10:03:55.761Z,1040
2017-10-21T10:04:57.184Z,1036
2017-10-21T10:05:58.606Z,1032
2017-10-21T10:07:00.031Z,1156
2017-10-21T10:08:01.476Z,1020
2017-10-21T10:09:02.885Z,872
2017-10-21T10:10:04.326Z,732
2017-10-21T10:11:05.754Z,668
2017-10-21T10:12:07.202Z,728
2017-10-21T10:13:08.633Z,676
2017-10-21T10:14:10.063Z,644
2017-10-21T10:15:11.490Z,656
2017-10-21T10:16:12.916Z,684
2017-10-21T10:17:14.343Z,668
2017-10-21T10:18:15.764Z,676
2017-10-21T10:19:17.203Z,624
2017-10-21T10:20:18.630Z,612
2017-10-21T10:21:20.057Z,620
2017-10-21T10:22:21.480Z,580
2017-10-21T10:23:22.902Z,592
2017-10-21T10:24:24.327Z,604
2017-10-21T10:25:25.754Z,588
2017-10-21T10:26:27.205Z,592
2017-10-21T10:27:28.639Z,544
2017-10-21T10:28:30.059Z,532
2017-10-21T10:29:31.505Z,608
2017-10-21T10:30:35.161Z,664
2017-10-21T10:31:36.583Z,688
2017-10-21T10:32:38.005Z,696
2017-10-21T10:33:39.427Z,616
2017-10-21T10:34:41.586Z,672
2017-10-21T10:35:43.074Z,664
2017-10-21T10:36:44.504Z,760
2017-10-21T10:37:45.956Z,792
2017-10-21T10:38:47.383Z,816
2017-10-21T10:39:48.842Z,780
2017-10-21T10:40:50.248Z,724
2017-10-21T10:41:51.665Z,740
2017-10-21T10:42:53.087Z,620
2017-10-21T10:43:54.509Z,532
2017-10-21T10:44:55.926Z,484
2017-10-21T10:45:57.358Z,460
2017-10-21T10:46:58.779Z,468
2017-10-21T10:48:00.217Z,512
2017-10-21T10:49:01.635Z,536
2017-10-21T10:50:03.075Z,512
2017-10-21T10:51:04.511Z,572
2017-10-21T10:52:05.927Z,628
2017-10-21T10:53:07.349Z,632
2017-10-21T10:54:08.778Z,752
2017-10-21T10:55:10.199Z,912
2017-10-21T10:56:11.624Z,876
2017-10-21T10:57:13.057Z,900
2017-10-21T10:58:14.484Z,1000
2017-10-21T10:59:15.923Z,1188
2017-10-21T11:00:17.348Z,888
2017-10-21T11:01:18.771Z,808
2017-10-21T11:02:20.215Z,900
2017-10-21T11:03:21.672Z,928
2017-10-21T11:04:23.062Z,952
2017-10-21T11:05:25.433Z,700
2017-10-21T11:06:26.852Z,564
2017-10-21T11:07:28.281Z,564
2017-10-21T11:08:29.716Z,516
2017-10-21T11:09:31.144Z,520
2017-10-21T11:10:32.580Z,468
2017-10-21T11:11:33.998Z,356
2017-10-21T11:12:35.429Z,300
2017-10-21T11:13:36.854Z,316
2017-10-21T11:14:38.284Z,472
2017-10-21T11:15:39.718Z,520
2017-10-21T11:16:41.134Z,780
2017-10-21T11:17:42.584Z,1804
2017-10-21T11:18:44.016Z,2860
2017-10-21T11:19:45.449Z,2500
2017-10-21T11:20:46.875Z,3020
2017-10-21T11:21:50.709Z,3816
2017-10-21T11:22:53.115Z,3148
2017-10-21T11:23:55.262Z,1804
2017-10-21T11:24:55.942Z,1344
2017-10-21T11:25:57.381Z,1496
2017-10-21T11:26:58.804Z,1364
2017-10-21T11:28:00.229Z,1256
2017-10-21T11:29:01.659Z,1048
2017-10-21T11:30:03.085Z,1084
2017-10-21T11:31:04.502Z,1036
2017-10-21T11:32:05.930Z,1168
2017-10-21T11:33:07.358Z,1244
2017-10-21T11:34:08.792Z,1416
2017-10-21T11:35:10.215Z,1472
2017-10-21T11:36:11.718Z,2204
2017-10-21T11:37:13.139Z,3372
2017-10-21T11:38:14.569Z,2892
2017-10-21T11:39:15.991Z,2176
2017-10-21T11:40:17.416Z,1540
2017-10-21T11:41:18.844Z,1156
2017-10-21T11:42:20.264Z,1056
2017-10-21T11:43:21.703Z,1084
2017-10-21T11:44:23.122Z,1060
2017-10-21T11:45:24.544Z,984
2017-10-21T11:46:25.969Z,892
2017-10-21T11:47:27.425Z,888
2017-10-21T11:48:28.862Z,908
2017-10-21T11:49:30.298Z,1384
2017-10-21T11:50:31.734Z,1640
2017-10-21T11:51:33.162Z,1820
2017-10-21T11:52:34.644Z,1880
2017-10-21T11:53:36.076Z,2032
2017-10-21T11:54:37.502Z,1896
2017-10-21T11:55:38.932Z,1832
2017-10-21T11:56:40.481Z,1636
2017-10-21T11:57:41.893Z,1516
2017-10-21T11:58:43.325Z,1492
2017-10-21T11:59:44.817Z,1488
2017-10-21T12:00:46.557Z,1556
2017-10-21T12:01:47.965Z,1640
2017-10-21T12:02:49.397Z,1624
2017-10-21T12:03:50.828Z,1620
2017-10-21T12:04:52.281Z,1788
2017-10-21T12:05:53.698Z,1788
2017-10-21T12:06:55.130Z,1896
2017-10-21T12:07:56.547Z,1948
2017-10-21T12:08:58.969Z,2064
2017-10-21T12:10:00.413Z,1884
2017-10-21T12:11:01.842Z,1600
2017-10-21T12:12:03.269Z,1584
2017-10-21T12:13:04.701Z,1632
2017-10-21T12:14:06.141Z,1780
2017-10-21T12:15:07.570Z,1900
2017-10-21T12:16:08.999Z,2132
2017-10-21T12:17:10.432Z,1832
2017-10-21T12:18:11.856Z,1576
2017-10-21T12:19:13.284Z,1404
2017-10-21T12:20:14.708Z,1324
2017-10-21T12:21:16.129Z,1372
2017-10-21T12:22:17.582Z,1424
2017-10-21T12:23:19.010Z,1328
2017-10-21T12:24:20.439Z,1148
2017-10-21T12:25:21.886Z,1236
2017-10-21T12:26:26.315Z,1652
2017-10-21T12:27:27.763Z,1604
2017-10-21T12:28:29.196Z,1484
2017-10-21T12:29:30.708Z,1484
2017-10-21T12:30:32.138Z,1736
2017-10-21T12:31:33.565Z,2072
2017-10-21T12:32:35.005Z,2604
2017-10-21T12:33:36.444Z,2828
2017-10-21T12:34:37.875Z,2836
2017-10-21T12:35:39.302Z,3136
2017-10-21T12:36:40.732Z,3080
2017-10-21T12:37:42.160Z,12872
2017-10-21T12:38:43.706Z,27424
2017-10-21T12:39:45.134Z,64576
2017-10-21T12:41:11.505Z,2788
2017-10-21T12:42:22.930Z,1164
2017-10-21T12:43:24.360Z,1536
2017-10-21T12:44:25.788Z,1416
2017-10-21T12:45:27.219Z,1324
2017-10-21T12:46:28.653Z,1920
2017-10-21T12:47:30.079Z,2336
2017-10-21T12:48:31.512Z,4180
2017-10-21T12:49:32.947Z,35776
2017-10-21T12:50:34.373Z,77984
2017-10-21T12:51:35.805Z,74272
2017-10-21T12:52:37.250Z,33696
2017-10-21T12:53:38.680Z,45344
2017-10-21T12:54:40.109Z,77408
2017-10-21T12:55:41.541Z,77568
2017-10-21T12:56:42.971Z,87680
2017-10-21T12:57:44.405Z,24896
2017-10-21T12:58:45.840Z,15268
2017-10-21T12:59:47.272Z,5992
2017-10-21T13:00:48.716Z,5356
2017-10-21T13:01:50.162Z,10996
2017-10-21T13:02:51.601Z,9536
2017-10-21T13:03:53.039Z,57504
2017-10-21T13:04:54.469Z,12112
2017-10-21T13:05:55.911Z,7924
2017-10-21T13:06:57.338Z,3040
2017-10-21T13:07:59.997Z,1572
2017-10-21T13:09:01.431Z,1320
2017-10-21T13:10:02.877Z,1324
2017-10-21T13:11:04.307Z,1264
2017-10-21T13:12:05.736Z,1252
2017-10-21T13:13:07.171Z,1288
2017-10-21T13:14:08.602Z,1400
2017-10-21T13:15:10.028Z,1228
2017-10-21T13:16:11.455Z,1160
2017-10-21T13:17:12.883Z,1112
2017-10-21T13:18:14.306Z,1068
2017-10-21T13:19:15.738Z,956
2017-10-21T13:20:17.170Z,976
2017-10-21T13:21:18.601Z,940
2017-10-21T13:22:20.051Z,920
2017-10-21T13:23:21.466Z,956
2017-10-21T13:24:22.896Z,956
2017-10-21T13:25:24.337Z,940
2017-10-21T13:26:25.763Z,916
2017-10-21T13:27:27.184Z,940
2017-10-21T13:28:28.628Z,976
2017-10-21T13:29:30.066Z,1140
2017-10-21T13:30:31.494Z,1412
2017-10-21T13:31:32.932Z,1328
2017-10-21T13:32:34.364Z,1308
2017-10-21T13:33:35.794Z,1228
2017-10-21T13:34:37.235Z,1088
2017-10-21T13:35:38.651Z,972
2017-10-21T13:36:40.078Z,972
2017-10-21T13:37:41.508Z,988
2017-10-21T13:38:42.929Z,924
2017-10-21T13:39:44.386Z,968
2017-10-21T13:40:45.806Z,972
2017-10-21T13:41:47.240Z,1016
2017-10-21T13:42:48.675Z,1040
2017-10-21T13:43:50.100Z,992
2017-10-21T13:44:51.528Z,1108
2017-10-21T13:45:52.950Z,1064
2017-10-21T13:46:54.373Z,1324
2017-10-21T13:47:55.801Z,1684
2017-10-21T13:48:57.227Z,1528
2017-10-21T13:49:58.652Z,1228
2017-10-21T13:51:00.076Z,860
2017-10-21T13:52:01.504Z,728
2017-10-21T13:53:02.940Z,848
2017-10-21T13:54:04.370Z,788
2017-10-21T13:55:05.800Z,596
2017-10-21T13:56:07.214Z,512
2017-10-21T13:57:08.633Z,428
2017-10-21T13:58:10.066Z,400
2017-10-21T13:59:11.496Z,416
2017-10-21T14:00:12.917Z,396
2017-10-21T14:01:14.335Z,452
2017-10-21T14:02:15.752Z,412
2017-10-21T14:03:17.178Z,448
2017-10-21T14:04:18.601Z,440
2017-10-21T14:05:20.045Z,476
2017-10-21T14:06:21.473Z,492
2017-10-21T14:07:22.897Z,492
2017-10-21T14:08:24.334Z,488
2017-10-21T14:09:25.756Z,584
2017-10-21T14:10:27.237Z,788
2017-10-21T14:11:28.665Z,1016
2017-10-21T14:12:30.090Z,1152
2017-10-21T14:13:31.519Z,1108
2017-10-21T14:14:32.945Z,920
2017-10-21T14:15:34.378Z,848
2017-10-21T14:16:35.807Z,768
2017-10-21T14:17:37.237Z,756
2017-10-21T14:18:38.664Z,820
2017-10-21T14:19:40.088Z,900
2017-10-21T14:20:41.513Z,1020
2017-10-21T14:21:42.946Z,1248
2017-10-21T14:22:44.381Z,1384
2017-10-21T14:23:45.814Z,1556
2017-10-21T14:24:47.241Z,2092
2017-10-21T14:25:48.669Z,2876